Anzahl Datensätze: 278
min. Temperatur: 1.6 °C
max. Temperatur: 11.4 °C
max. Windgeschwindigkeit: 9.8 km/h
Niederschlagsumme: 0.0 mm
| Datum |
Zeit |
Temp °C |
Feuchte % |
Taupunkt °C |
Luftdruck hPa |
Wind km/h |
Windrichtung |
Strahlung w/m² |
Niederschlag mm |
|---|---|---|---|---|---|---|---|---|---|
| 12.03.2026 | 00:05 | 4.0 | 93 | 3.0 | 1020.4 | 0.0 | SW | 0 | 0.0 |
| 12.03.2026 | 00:10 | 3.8 | 93 | 2.8 | 1020.5 | 0.0 | SW | 0 | 0.0 |
| 12.03.2026 | 00:15 | 3.6 | 93 | 2.6 | 1020.6 | 0.4 | SW | 0 | 0.0 |
| 12.03.2026 | 00:20 | 3.5 | 93 | 2.5 | 1020.6 | 0.0 | SW | 0 | 0.0 |
| 12.03.2026 | 00:25 | 3.4 | 93 | 2.4 | 1020.7 | 0.0 | SW | 0 | 0.0 |
| 12.03.2026 | 00:30 | 3.3 | 93 | 2.3 | 1020.8 | 0.4 | SSW | 0 | 0.0 |
| 12.03.2026 | 00:35 | 3.2 | 93 | 2.2 | 1020.9 | 0.4 | SO | 0 | 0.0 |
| 12.03.2026 | 00:40 | 3.2 | 93 | 2.2 | 1020.9 | 0.0 | SO | 0 | 0.0 |
| 12.03.2026 | 00:45 | 3.3 | 93 | 2.3 | 1021.0 | 0.0 | SO | 0 | 0.0 |
| 12.03.2026 | 00:50 | 3.3 | 93 | 2.3 | 1021.0 | 0.0 | SSO | 0 | 0.0 |
| 12.03.2026 | 00:55 | 3.3 | 93 | 2.3 | 1021.0 | 0.4 | SSO | 0 | 0.0 |
| 12.03.2026 | 01:00 | 3.3 | 93 | 2.3 | 1021.0 | 0.9 | SSO | 0 | 0.0 |
| 12.03.2026 | 01:05 | 3.4 | 94 | 2.5 | 1021.0 | 0.0 | S | 0 | 0.0 |
| 12.03.2026 | 01:10 | 3.4 | 94 | 2.5 | 1021.0 | 0.4 | SSW | 0 | 0.0 |
| 12.03.2026 | 01:15 | 3.4 | 94 | 2.5 | 1021.0 | 0.4 | SSW | 0 | 0.0 |
| 12.03.2026 | 01:20 | 3.3 | 94 | 2.4 | 1021.0 | 0.0 | SSW | 0 | 0.0 |
| 12.03.2026 | 01:25 | 3.2 | 93 | 2.2 | 1021.0 | 0.0 | SSW | 0 | 0.0 |
| 12.03.2026 | 01:30 | 3.0 | 94 | 2.1 | 1021.2 | 0.0 | SSW | 0 | 0.0 |
| 12.03.2026 | 01:35 | 3.0 | 93 | 2.0 | 1021.2 | 0.0 | SSW | 0 | 0.0 |
| 12.03.2026 | 01:40 | 2.8 | 93 | 1.8 | 1021.4 | 0.0 | SSW | 0 | 0.0 |
| 12.03.2026 | 01:45 | 2.8 | 94 | 1.9 | 1021.4 | 0.0 | SSW | 0 | 0.0 |
| 12.03.2026 | 01:50 | 2.7 | 94 | 1.8 | 1021.4 | 0.4 | SSW | 0 | 0.0 |
| 12.03.2026 | 01:55 | 2.6 | 94 | 1.7 | 1021.4 | 0.0 | SSW | 0 | 0.0 |
| 12.03.2026 | 02:00 | 2.5 | 93 | 1.5 | 1021.4 | 0.4 | SSW | 0 | 0.0 |
| 12.03.2026 | 02:05 | 2.3 | 94 | 1.4 | 1021.4 | 0.0 | SSW | 0 | 0.0 |
| 12.03.2026 | 02:10 | 2.1 | 94 | 1.2 | 1021.4 | 0.0 | SSW | 0 | 0.0 |
| 12.03.2026 | 02:15 | 2.0 | 94 | 1.1 | 1021.5 | 0.0 | SSW | 0 | 0.0 |
| 12.03.2026 | 02:20 | 1.9 | 93 | 0.9 | 1021.5 | 0.0 | SSW | 0 | 0.0 |
| 12.03.2026 | 02:25 | 1.7 | 94 | 0.8 | 1021.6 | 0.0 | SSW | 0 | 0.0 |
| 12.03.2026 | 02:30 | 1.6 | 93 | 0.6 | 1021.6 | 0.4 | SSW | 0 | 0.0 |
| 12.03.2026 | 02:35 | 1.6 | 93 | 0.6 | 1021.6 | 0.0 | SSW | 0 | 0.0 |
| 12.03.2026 | 02:40 | 1.7 | 94 | 0.8 | 1021.7 | 0.4 | SSW | 0 | 0.0 |
| 12.03.2026 | 02:45 | 2.1 | 94 | 1.2 | 1021.7 | 0.4 | SSW | 0 | 0.0 |
| 12.03.2026 | 02:50 | 2.4 | 94 | 1.5 | 1021.7 | 0.0 | SSW | 0 | 0.0 |
| 12.03.2026 | 02:55 | 2.4 | 94 | 1.5 | 1021.8 | 0.0 | SSW | 0 | 0.0 |
| 12.03.2026 | 03:00 | 2.4 | 94 | 1.5 | 1021.8 | 0.4 | SSW | 0 | 0.0 |
| 12.03.2026 | 03:05 | 2.4 | 94 | 1.5 | 1021.8 | 0.0 | SSW | 0 | 0.0 |
| 12.03.2026 | 03:11 | 2.3 | 94 | 1.4 | 1021.8 | 0.0 | SSW | 0 | 0.0 |
| 12.03.2026 | 03:16 | 2.3 | 94 | 1.4 | 1022.0 | 0.0 | SSW | 0 | 0.0 |
| 12.03.2026 | 03:21 | 2.1 | 94 | 1.2 | 1022.0 | 0.4 | SSW | 0 | 0.0 |
| 12.03.2026 | 03:26 | 2.3 | 94 | 1.4 | 1022.1 | 0.4 | SW | 0 | 0.0 |
| 12.03.2026 | 03:31 | 2.4 | 94 | 1.5 | 1022.1 | 0.4 | SW | 0 | 0.0 |
| 12.03.2026 | 03:36 | 2.6 | 94 | 1.7 | 1022.3 | 0.4 | SW | 0 | 0.0 |
| 12.03.2026 | 03:41 | 2.7 | 94 | 1.8 | 1022.3 | 0.4 | SW | 0 | 0.0 |
| 12.03.2026 | 03:46 | 2.9 | 94 | 2.0 | 1022.4 | 0.4 | SW | 0 | 0.0 |
| 12.03.2026 | 03:51 | 3.0 | 94 | 2.1 | 1022.4 | 0.0 | SW | 0 | 0.0 |
| 12.03.2026 | 03:56 | 3.0 | 94 | 2.1 | 1022.5 | 0.0 | SW | 0 | 0.0 |
| 12.03.2026 | 04:01 | 3.1 | 94 | 2.2 | 1022.5 | 0.0 | SW | 0 | 0.0 |
| 12.03.2026 | 04:06 | 3.1 | 94 | 2.2 | 1022.6 | 0.0 | SW | 0 | 0.0 |
| 12.03.2026 | 04:11 | 3.3 | 94 | 2.4 | 1022.5 | 0.0 | SSW | 0 | 0.0 |
| 12.03.2026 | 04:16 | 3.4 | 94 | 2.5 | 1022.6 | 0.0 | SSW | 0 | 0.0 |
| 12.03.2026 | 04:21 | 3.5 | 94 | 2.6 | 1022.6 | 0.0 | SSW | 0 | 0.0 |
| 12.03.2026 | 04:26 | 3.6 | 94 | 2.7 | 1022.6 | 0.4 | S | 0 | 0.0 |
| 12.03.2026 | 04:31 | 3.6 | 94 | 2.7 | 1022.6 | 0.0 | S | 0 | 0.0 |
| 12.03.2026 | 04:36 | 3.8 | 94 | 2.9 | 1022.7 | 0.0 | WSW | 0 | 0.0 |
| 12.03.2026 | 04:41 | 3.9 | 94 | 3.0 | 1022.7 | 0.0 | SSO | 0 | 0.0 |
| 12.03.2026 | 04:46 | 3.9 | 94 | 3.0 | 1022.7 | 0.0 | S | 0 | 0.0 |
| 12.03.2026 | 04:51 | 4.0 | 94 | 3.1 | 1022.8 | 0.9 | S | 0 | 0.0 |
| 12.03.2026 | 04:56 | 4.0 | 94 | 3.1 | 1022.8 | 1.3 | SW | 0 | 0.0 |
| 12.03.2026 | 05:01 | 4.0 | 94 | 3.1 | 1022.8 | 0.9 | SSW | 0 | 0.0 |
| 12.03.2026 | 05:06 | 4.1 | 94 | 3.2 | 1022.9 | 1.3 | WSW | 0 | 0.0 |
| 12.03.2026 | 05:11 | 4.1 | 94 | 3.2 | 1022.9 | 1.8 | S | 0 | 0.0 |
| 12.03.2026 | 05:16 | 4.1 | 94 | 3.2 | 1022.9 | 0.9 | SSW | 0 | 0.0 |
| 12.03.2026 | 05:21 | 4.1 | 94 | 3.2 | 1022.9 | 1.3 | SSW | 0 | 0.0 |
| 12.03.2026 | 05:26 | 4.2 | 94 | 3.3 | 1022.8 | 0.4 | SW | 0 | 0.0 |
| 12.03.2026 | 05:31 | 4.2 | 94 | 3.3 | 1022.8 | 0.4 | S | 0 | 0.0 |
| 12.03.2026 | 05:36 | 4.2 | 94 | 3.3 | 1022.8 | 0.4 | SSW | 0 | 0.0 |
| 12.03.2026 | 05:41 | 4.3 | 94 | 3.4 | 1022.8 | 0.4 | SSW | 0 | 0.0 |
| 12.03.2026 | 05:46 | 4.3 | 94 | 3.4 | 1022.8 | 1.8 | SW | 0 | 0.0 |
| 12.03.2026 | 05:51 | 4.3 | 94 | 3.4 | 1022.8 | 1.8 | S | 0 | 0.0 |
| 12.03.2026 | 05:56 | 4.3 | 94 | 3.4 | 1022.9 | 1.8 | S | 0 | 0.0 |
| 12.03.2026 | 06:01 | 4.3 | 94 | 3.4 | 1022.8 | 1.3 | SSW | 0 | 0.0 |
| 12.03.2026 | 06:06 | 4.4 | 94 | 3.5 | 1022.7 | 0.9 | S | 0 | 0.0 |
| 12.03.2026 | 06:12 | 4.4 | 94 | 3.5 | 1022.7 | 1.3 | SSW | 0 | 0.0 |
| 12.03.2026 | 06:17 | 4.4 | 94 | 3.5 | 1022.7 | 0.9 | S | 0 | 0.0 |
| 12.03.2026 | 06:22 | 4.4 | 94 | 3.5 | 1022.7 | 1.8 | SW | 0 | 0.0 |
| 12.03.2026 | 06:27 | 4.4 | 94 | 3.5 | 1022.8 | 1.3 | SW | 0 | 0.0 |
| 12.03.2026 | 06:32 | 4.4 | 94 | 3.5 | 1022.8 | 1.8 | SSW | 0 | 0.0 |
| 12.03.2026 | 06:37 | 4.4 | 94 | 3.5 | 1022.8 | 1.3 | SSW | 0 | 0.0 |
| 12.03.2026 | 06:42 | 4.5 | 94 | 3.6 | 1022.9 | 0.4 | SSO | 0 | 0.0 |
| 12.03.2026 | 06:47 | 4.5 | 94 | 3.6 | 1023.0 | 1.3 | S | 0 | 0.0 |
| 12.03.2026 | 06:52 | 4.5 | 94 | 3.6 | 1023.0 | 0.9 | S | 0 | 0.0 |
| 12.03.2026 | 06:57 | 4.5 | 94 | 3.6 | 1023.0 | 2.7 | S | 0 | 0.0 |
| 12.03.2026 | 07:02 | 4.5 | 94 | 3.6 | 1022.9 | 1.8 | SSW | 0 | 0.0 |
| 12.03.2026 | 07:07 | 4.5 | 94 | 3.6 | 1023.0 | 1.8 | S | 0 | 0.0 |
| 12.03.2026 | 07:12 | 4.5 | 94 | 3.6 | 1023.1 | 1.3 | S | 7 | 0.0 |
| 12.03.2026 | 07:17 | 4.5 | 94 | 3.6 | 1023.1 | 0.9 | S | 9 | 0.0 |
| 12.03.2026 | 07:22 | 4.5 | 94 | 3.6 | 1023.1 | 0.4 | S | 11 | 0.0 |
| 12.03.2026 | 07:27 | 4.5 | 94 | 3.6 | 1023.2 | 0.9 | S | 14 | 0.0 |
| 12.03.2026 | 07:32 | 4.5 | 94 | 3.6 | 1023.1 | 0.9 | SSO | 19 | 0.0 |
| 12.03.2026 | 07:37 | 4.5 | 94 | 3.6 | 1023.2 | 0.4 | S | 26 | 0.0 |
| 12.03.2026 | 07:42 | 4.5 | 94 | 3.6 | 1023.3 | 0.9 | S | 33 | 0.0 |
| 12.03.2026 | 07:47 | 4.6 | 94 | 3.7 | 1023.3 | 2.2 | S | 42 | 0.0 |
| 12.03.2026 | 07:52 | 4.6 | 94 | 3.7 | 1023.3 | 2.2 | SSW | 47 | 0.0 |
| 12.03.2026 | 07:57 | 4.6 | 94 | 3.7 | 1023.3 | 1.3 | SSW | 47 | 0.0 |
| 12.03.2026 | 08:02 | 4.6 | 94 | 3.7 | 1023.4 | 0.9 | SSW | 60 | 0.0 |
| 12.03.2026 | 08:07 | 4.7 | 93 | 3.7 | 1023.4 | 0.9 | WSW | 62 | 0.0 |
| 12.03.2026 | 08:12 | 4.8 | 94 | 3.9 | 1023.5 | 0.9 | S | 69 | 0.0 |
| 12.03.2026 | 08:17 | 4.9 | 93 | 3.9 | 1023.6 | 0.4 | S | 72 | 0.0 |
| 12.03.2026 | 08:22 | 5.0 | 93 | 4.0 | 1023.7 | 2.7 | W | 63 | 0.0 |
| 12.03.2026 | 08:27 | 5.0 | 93 | 4.0 | 1023.7 | 1.8 | SSW | 81 | 0.0 |
| 12.03.2026 | 08:32 | 5.1 | 94 | 4.2 | 1023.7 | 0.4 | SSW | 109 | 0.0 |
| 12.03.2026 | 08:37 | 5.2 | 93 | 4.2 | 1023.8 | 1.3 | S | 199 | 0.0 |
| 12.03.2026 | 08:42 | 5.4 | 93 | 4.4 | 1023.7 | 1.3 | SSW | 213 | 0.0 |
| 12.03.2026 | 08:47 | 5.6 | 93 | 4.6 | 1023.7 | 0.9 | SSW | 229 | 0.0 |
| 12.03.2026 | 08:52 | 5.8 | 93 | 4.8 | 1023.8 | 2.7 | SSW | 244 | 0.0 |
| 12.03.2026 | 08:57 | 5.9 | 93 | 4.9 | 1023.7 | 0.9 | SW | 265 | 0.0 |
| 12.03.2026 | 09:02 | 6.1 | 93 | 5.1 | 1023.7 | 0.9 | SSW | 281 | 0.0 |
| 12.03.2026 | 09:07 | 6.3 | 93 | 5.3 | 1023.7 | 1.3 | SSW | 200 | 0.0 |
| 12.03.2026 | 09:13 | 6.5 | 92 | 5.3 | 1023.9 | 0.9 | SSW | 415 | 0.0 |
| 12.03.2026 | 09:18 | 6.5 | 92 | 5.3 | 1023.8 | 1.8 | OSO | 100 | 0.0 |
| 12.03.2026 | 09:23 | 6.4 | 92 | 5.2 | 1023.9 | 1.3 | SSW | 156 | 0.0 |
| 12.03.2026 | 09:28 | 6.3 | 92 | 5.1 | 1024.0 | 1.3 | SSW | 218 | 0.0 |
| 12.03.2026 | 09:33 | 6.4 | 92 | 5.2 | 1024.0 | 1.8 | SSO | 137 | 0.0 |
| 12.03.2026 | 09:38 | 6.4 | 92 | 5.2 | 1024.1 | 2.2 | S | 221 | 0.0 |
| 12.03.2026 | 09:43 | 6.5 | 92 | 5.3 | 1024.1 | 1.3 | SSW | 381 | 0.0 |
| 12.03.2026 | 09:48 | 6.8 | 92 | 5.6 | 1024.1 | 1.8 | SSO | 123 | 0.0 |
| 12.03.2026 | 09:53 | 6.8 | 92 | 5.6 | 1024.1 | 2.2 | SSW | 102 | 0.0 |
| 12.03.2026 | 09:58 | 6.8 | 91 | 5.4 | 1024.0 | 1.3 | SSO | 151 | 0.0 |
| 12.03.2026 | 10:03 | 6.6 | 91 | 5.2 | 1024.0 | 1.8 | S | 151 | 0.0 |
| 12.03.2026 | 10:08 | 6.7 | 91 | 5.3 | 1024.0 | 3.6 | SO | 218 | 0.0 |
| 12.03.2026 | 10:13 | 6.8 | 91 | 5.4 | 1024.1 | 3.1 | SSW | 179 | 0.0 |
| 12.03.2026 | 10:18 | 6.8 | 90 | 5.3 | 1024.3 | 5.4 | SW | 105 | 0.0 |
| 12.03.2026 | 10:23 | 6.6 | 90 | 5.1 | 1024.2 | 1.8 | S | 62 | 0.0 |
| 12.03.2026 | 10:28 | 6.5 | 90 | 5.0 | 1024.2 | 1.8 | WSW | 51 | 0.0 |
| 12.03.2026 | 10:33 | 6.4 | 90 | 4.9 | 1024.2 | 3.1 | S | 67 | 0.0 |
| 12.03.2026 | 10:38 | 6.3 | 90 | 4.8 | 1024.1 | 2.2 | SSO | 114 | 0.0 |
| 12.03.2026 | 10:43 | 6.4 | 90 | 4.9 | 1024.1 | 0.9 | SW | 295 | 0.0 |
| 12.03.2026 | 10:48 | 6.8 | 90 | 5.3 | 1024.1 | 1.8 | S | 763 | 0.0 |
| 12.03.2026 | 10:58 | 7.8 | 90 | 6.3 | 1024.0 | 2.2 | S | 251 | 0.0 |
| 12.03.2026 | 11:03 | 7.9 | 88 | 6.0 | 1023.9 | 3.1 | SSW | 213 | 0.0 |
| 12.03.2026 | 11:08 | 7.8 | 87 | 5.8 | 1023.9 | 1.8 | SSW | 183 | 0.0 |
| 12.03.2026 | 11:13 | 8.0 | 87 | 6.0 | 1023.8 | 1.8 | S | 837 | 0.0 |
| 12.03.2026 | 11:18 | 8.6 | 87 | 6.6 | 1023.9 | 0.9 | SSW | 499 | 0.0 |
| 12.03.2026 | 11:23 | 9.1 | 85 | 6.7 | 1023.8 | 1.8 | S | 733 | 0.0 |
| 12.03.2026 | 11:28 | 9.5 | 84 | 6.9 | 1023.8 | 1.8 | SSW | 870 | 0.0 |
| 12.03.2026 | 11:38 | 9.3 | 82 | 6.4 | 1023.8 | 2.2 | S | 206 | 0.0 |
| 12.03.2026 | 11:43 | 9.0 | 81 | 5.9 | 1023.7 | 3.1 | SSW | 165 | 0.0 |
| 12.03.2026 | 11:48 | 8.7 | 81 | 5.6 | 1023.7 | 2.2 | S | 209 | 0.0 |
| 12.03.2026 | 11:53 | 8.6 | 81 | 5.5 | 1023.7 | 2.2 | SO | 710 | 0.0 |
| 12.03.2026 | 11:59 | 8.9 | 81 | 5.8 | 1023.5 | 0.9 | SSO | 817 | 0.0 |
| 12.03.2026 | 12:04 | 9.0 | 80 | 5.7 | 1023.4 | 1.3 | SSW | 279 | 0.0 |
| 12.03.2026 | 12:14 | 9.1 | 79 | 5.7 | 1023.3 | 4.9 | SSO | 169 | 0.0 |
| 12.03.2026 | 12:24 | 8.7 | 75 | 4.5 | 1023.3 | 1.8 | SSW | 171 | 0.0 |
| 12.03.2026 | 12:29 | 8.6 | 75 | 4.4 | 1023.3 | 2.2 | SSW | 176 | 0.0 |
| 12.03.2026 | 12:34 | 8.6 | 75 | 4.4 | 1023.3 | 3.1 | SW | 134 | 0.0 |
| 12.03.2026 | 12:39 | 8.5 | 76 | 4.5 | 1023.1 | 1.8 | S | 202 | 0.0 |
| 12.03.2026 | 12:44 | 8.6 | 75 | 4.4 | 1023.1 | 1.3 | SW | 221 | 0.0 |
| 12.03.2026 | 12:49 | 9.2 | 76 | 5.2 | 1023.0 | 1.8 | SSW | 221 | 0.0 |
| 12.03.2026 | 12:54 | 9.6 | 75 | 5.4 | 1022.8 | 1.8 | SSO | 318 | 0.0 |
| 12.03.2026 | 13:04 | 10.1 | 73 | 5.5 | 1022.7 | 4.9 | SW | 325 | 0.0 |
| 12.03.2026 | 13:14 | 9.9 | 73 | 5.3 | 1022.6 | 0.9 | S | 316 | 0.0 |
| 12.03.2026 | 13:19 | 9.9 | 72 | 5.1 | 1022.4 | 1.3 | S | 239 | 0.0 |
| 12.03.2026 | 13:24 | 10.0 | 73 | 5.4 | 1022.3 | 2.2 | S | 260 | 0.0 |
| 12.03.2026 | 13:29 | 10.0 | 72 | 5.2 | 1022.3 | 1.3 | SW | 236 | 0.0 |
| 12.03.2026 | 13:34 | 10.0 | 72 | 5.2 | 1022.2 | 4.0 | S | 339 | 0.0 |
| 12.03.2026 | 13:39 | 10.0 | 72 | 5.2 | 1022.2 | 2.7 | S | 285 | 0.0 |
| 12.03.2026 | 13:44 | 10.1 | 71 | 5.1 | 1022.3 | 1.3 | SSW | 213 | 0.0 |
| 12.03.2026 | 13:49 | 10.0 | 70 | 4.8 | 1022.2 | 0.9 | SSW | 241 | 0.0 |
| 12.03.2026 | 13:54 | 10.0 | 71 | 5.0 | 1022.1 | 0.9 | SSW | 348 | 0.0 |
| 12.03.2026 | 13:59 | 10.3 | 71 | 5.3 | 1021.9 | 1.8 | SSW | 251 | 0.0 |
| 12.03.2026 | 14:04 | 10.5 | 69 | 5.1 | 1021.9 | 3.1 | SSO | 290 | 0.0 |
| 12.03.2026 | 14:14 | 10.4 | 69 | 5.0 | 1021.6 | 0.9 | S | 258 | 0.0 |
| 12.03.2026 | 14:19 | 10.6 | 71 | 5.6 | 1021.5 | 2.2 | SW | 213 | 0.0 |
| 12.03.2026 | 14:29 | 10.5 | 68 | 4.8 | 1021.5 | 3.1 | SW | 251 | 0.0 |
| 12.03.2026 | 14:34 | 10.5 | 69 | 5.1 | 1021.3 | 1.3 | S | 689 | 0.0 |
| 12.03.2026 | 14:40 | 11.1 | 68 | 5.4 | 1021.3 | 2.7 | SW | 633 | 0.0 |
| 12.03.2026 | 14:45 | 11.4 | 66 | 5.3 | 1021.3 | 2.2 | SW | 519 | 0.0 |
| 12.03.2026 | 14:50 | 11.3 | 65 | 5.0 | 1021.3 | 1.8 | S | 137 | 0.0 |
| 12.03.2026 | 14:55 | 11.0 | 66 | 4.9 | 1021.2 | 3.6 | SW | 179 | 0.0 |
| 12.03.2026 | 15:00 | 10.8 | 68 | 5.1 | 1021.1 | 3.1 | S | 199 | 0.0 |
| 12.03.2026 | 15:05 | 10.7 | 68 | 5.0 | 1021.1 | 1.8 | SW | 299 | 0.0 |
| 12.03.2026 | 15:10 | 10.6 | 69 | 5.1 | 1021.1 | 2.2 | S | 253 | 0.0 |
| 12.03.2026 | 15:15 | 10.7 | 68 | 5.0 | 1021.0 | 2.7 | SSW | 246 | 0.0 |
| 12.03.2026 | 15:20 | 10.8 | 68 | 5.1 | 1021.0 | 1.3 | SO | 274 | 0.0 |
| 12.03.2026 | 15:25 | 11.0 | 68 | 5.3 | 1021.0 | 2.2 | SSW | 506 | 0.0 |
| 12.03.2026 | 15:30 | 11.3 | 67 | 5.4 | 1021.1 | 2.2 | SW | 359 | 0.0 |
| 12.03.2026 | 15:35 | 11.4 | 66 | 5.3 | 1021.1 | 3.1 | S | 508 | 0.0 |
| 12.03.2026 | 15:40 | 11.3 | 65 | 5.0 | 1021.1 | 4.0 | SO | 181 | 0.0 |
| 12.03.2026 | 15:45 | 11.1 | 66 | 5.0 | 1021.1 | 0.9 | S | 171 | 0.0 |
| 12.03.2026 | 15:50 | 11.0 | 68 | 5.3 | 1021.0 | 0.9 | SSW | 220 | 0.0 |
| 12.03.2026 | 15:55 | 11.0 | 68 | 5.3 | 1021.0 | 3.1 | WSW | 171 | 0.0 |
| 12.03.2026 | 16:00 | 10.9 | 68 | 5.2 | 1021.0 | 2.2 | S | 197 | 0.0 |
| 12.03.2026 | 16:05 | 10.8 | 67 | 4.9 | 1021.0 | 1.8 | S | 197 | 0.0 |
| 12.03.2026 | 16:10 | 11.0 | 66 | 4.9 | 1021.0 | 2.7 | SSW | 399 | 0.0 |
| 12.03.2026 | 16:15 | 11.0 | 65 | 4.7 | 1020.8 | 4.0 | S | 156 | 0.0 |
| 12.03.2026 | 16:20 | 11.0 | 67 | 5.1 | 1020.8 | 4.9 | SO | 380 | 0.0 |
| 12.03.2026 | 16:25 | 11.1 | 67 | 5.2 | 1020.7 | 1.3 | SSW | 156 | 0.0 |
| 12.03.2026 | 16:30 | 11.1 | 67 | 5.2 | 1020.6 | 1.8 | SSO | 355 | 0.0 |
| 12.03.2026 | 16:35 | 11.3 | 67 | 5.4 | 1020.6 | 2.2 | SW | 142 | 0.0 |
| 12.03.2026 | 16:40 | 11.4 | 66 | 5.3 | 1020.6 | 1.3 | SO | 264 | 0.0 |
| 12.03.2026 | 16:45 | 11.3 | 64 | 4.7 | 1020.6 | 1.8 | S | 258 | 0.0 |
| 12.03.2026 | 16:50 | 11.3 | 65 | 5.0 | 1020.5 | 4.0 | SSO | 250 | 0.0 |
| 12.03.2026 | 16:55 | 11.3 | 66 | 5.2 | 1020.5 | 2.2 | S | 241 | 0.0 |
| 12.03.2026 | 17:00 | 11.1 | 65 | 4.8 | 1020.5 | 2.2 | S | 97 | 0.0 |
| 12.03.2026 | 17:05 | 10.9 | 66 | 4.8 | 1020.6 | 2.7 | S | 195 | 0.0 |
| 12.03.2026 | 17:11 | 10.9 | 67 | 5.0 | 1020.6 | 1.3 | S | 102 | 0.0 |
| 12.03.2026 | 17:16 | 10.9 | 66 | 4.8 | 1020.5 | 2.2 | SSW | 97 | 0.0 |
| 12.03.2026 | 17:21 | 10.9 | 67 | 5.0 | 1020.6 | 2.2 | SSW | 65 | 0.0 |
| 12.03.2026 | 17:26 | 10.8 | 67 | 4.9 | 1020.6 | 2.2 | WSW | 72 | 0.0 |
| 12.03.2026 | 17:31 | 10.6 | 67 | 4.7 | 1020.5 | 1.8 | S | 60 | 0.0 |
| 12.03.2026 | 17:36 | 10.5 | 69 | 5.1 | 1020.4 | 3.6 | SSW | 60 | 0.0 |
| 12.03.2026 | 17:41 | 10.4 | 68 | 4.7 | 1020.4 | 2.7 | SSW | 46 | 0.0 |
| 12.03.2026 | 17:46 | 10.2 | 68 | 4.6 | 1020.3 | 1.8 | SSW | 42 | 0.0 |
| 12.03.2026 | 17:51 | 10.1 | 69 | 4.7 | 1020.3 | 1.8 | S | 40 | 0.0 |
| 12.03.2026 | 17:56 | 10.0 | 69 | 4.6 | 1020.3 | 1.8 | SSW | 32 | 0.0 |
| 12.03.2026 | 18:01 | 10.0 | 69 | 4.6 | 1020.1 | 2.2 | SSW | 30 | 0.0 |
| 12.03.2026 | 18:06 | 9.9 | 69 | 4.5 | 1020.1 | 2.7 | SSW | 21 | 0.0 |
| 12.03.2026 | 18:11 | 9.8 | 70 | 4.6 | 1020.1 | 2.7 | SSW | 18 | 0.0 |
| 12.03.2026 | 18:16 | 9.8 | 70 | 4.6 | 1020.0 | 3.1 | SSW | 12 | 0.0 |
| 12.03.2026 | 18:21 | 9.7 | 70 | 4.5 | 1019.9 | 1.8 | SO | 9 | 0.0 |
| 12.03.2026 | 18:26 | 9.6 | 71 | 4.6 | 1019.9 | 2.2 | SSW | 5 | 0.0 |
| 12.03.2026 | 18:31 | 9.5 | 71 | 4.5 | 1019.9 | 0.9 | SSW | 0 | 0.0 |
| 12.03.2026 | 18:36 | 9.5 | 71 | 4.5 | 1019.8 | 0.9 | SO | 0 | 0.0 |
| 12.03.2026 | 18:41 | 9.4 | 72 | 4.6 | 1019.7 | 1.3 | S | 0 | 0.0 |
| 12.03.2026 | 18:46 | 9.3 | 72 | 4.5 | 1019.8 | 0.9 | SSO | 0 | 0.0 |
| 12.03.2026 | 18:51 | 9.1 | 73 | 4.5 | 1019.7 | 2.2 | SO | 0 | 0.0 |
| 12.03.2026 | 18:56 | 9.0 | 73 | 4.4 | 1019.6 | 1.3 | S | 0 | 0.0 |
| 12.03.2026 | 19:01 | 8.9 | 74 | 4.5 | 1019.6 | 1.8 | SSO | 0 | 0.0 |
| 12.03.2026 | 19:06 | 8.9 | 74 | 4.5 | 1019.6 | 1.8 | SSW | 0 | 0.0 |
| 12.03.2026 | 19:11 | 8.8 | 74 | 4.4 | 1019.5 | 2.2 | SSW | 0 | 0.0 |
| 12.03.2026 | 19:16 | 8.8 | 74 | 4.4 | 1019.5 | 1.3 | S | 0 | 0.0 |
| 12.03.2026 | 19:21 | 8.7 | 75 | 4.5 | 1019.6 | 0.9 | S | 0 | 0.0 |
| 12.03.2026 | 19:26 | 8.6 | 75 | 4.4 | 1019.4 | 2.2 | S | 0 | 0.0 |
| 12.03.2026 | 19:31 | 8.6 | 75 | 4.4 | 1019.4 | 2.2 | SSW | 0 | 0.0 |
| 12.03.2026 | 19:36 | 8.5 | 75 | 4.3 | 1019.3 | 1.3 | S | 0 | 0.0 |
| 12.03.2026 | 19:42 | 8.5 | 74 | 4.1 | 1019.3 | 0.9 | SO | 0 | 0.0 |
| 12.03.2026 | 19:47 | 8.5 | 75 | 4.3 | 1019.2 | 1.3 | S | 0 | 0.0 |
| 12.03.2026 | 19:52 | 8.5 | 74 | 4.1 | 1019.2 | 1.8 | S | 0 | 0.0 |
| 12.03.2026 | 19:57 | 8.5 | 74 | 4.1 | 1019.2 | 1.8 | S | 0 | 0.0 |
| 12.03.2026 | 20:02 | 8.5 | 74 | 4.1 | 1019.1 | 1.3 | S | 0 | 0.0 |
| 12.03.2026 | 20:07 | 8.4 | 74 | 4.0 | 1019.1 | 2.7 | SSO | 0 | 0.0 |
| 12.03.2026 | 20:12 | 8.5 | 74 | 4.1 | 1019.0 | 2.2 | S | 0 | 0.0 |
| 12.03.2026 | 20:17 | 8.5 | 74 | 4.1 | 1018.9 | 2.2 | SSW | 0 | 0.0 |
| 12.03.2026 | 20:22 | 8.5 | 74 | 4.1 | 1018.9 | 2.7 | S | 0 | 0.0 |
| 12.03.2026 | 20:27 | 8.5 | 74 | 4.1 | 1018.8 | 1.8 | SSW | 0 | 0.0 |
| 12.03.2026 | 20:32 | 8.4 | 74 | 4.0 | 1018.8 | 2.2 | SSO | 0 | 0.0 |
| 12.03.2026 | 20:37 | 8.3 | 74 | 3.9 | 1018.7 | 2.2 | S | 0 | 0.0 |
| 12.03.2026 | 20:42 | 8.3 | 75 | 4.1 | 1018.6 | 0.9 | SSW | 0 | 0.0 |
| 12.03.2026 | 20:47 | 8.2 | 75 | 4.0 | 1018.6 | 0.9 | S | 0 | 0.0 |
| 12.03.2026 | 20:52 | 8.1 | 76 | 4.1 | 1018.5 | 2.2 | SSO | 0 | 0.0 |
| 12.03.2026 | 20:57 | 8.1 | 76 | 4.1 | 1018.3 | 1.8 | SO | 0 | 0.0 |
| 12.03.2026 | 21:02 | 8.0 | 76 | 4.0 | 1018.3 | 1.8 | SO | 0 | 0.0 |
| 12.03.2026 | 21:07 | 8.0 | 77 | 4.2 | 1018.3 | 0.9 | S | 0 | 0.0 |
| 12.03.2026 | 21:12 | 7.9 | 77 | 4.1 | 1018.3 | 2.2 | S | 0 | 0.0 |
| 12.03.2026 | 21:17 | 7.9 | 77 | 4.1 | 1018.3 | 1.8 | S | 0 | 0.0 |
| 12.03.2026 | 21:22 | 7.8 | 77 | 4.0 | 1018.2 | 0.9 | SO | 0 | 0.0 |
| 12.03.2026 | 21:27 | 7.8 | 78 | 4.2 | 1018.2 | 0.9 | OSO | 0 | 0.0 |
| 12.03.2026 | 21:32 | 7.8 | 78 | 4.2 | 1018.2 | 1.3 | SSW | 0 | 0.0 |
| 12.03.2026 | 21:37 | 7.8 | 78 | 4.2 | 1018.2 | 1.8 | SSW | 0 | 0.0 |
| 12.03.2026 | 21:42 | 7.9 | 79 | 4.5 | 1018.1 | 1.8 | SSO | 0 | 0.0 |
| 12.03.2026 | 21:47 | 7.9 | 79 | 4.5 | 1018.1 | 1.3 | SSW | 0 | 0.0 |
| 12.03.2026 | 21:52 | 7.9 | 79 | 4.5 | 1018.0 | 0.9 | S | 0 | 0.0 |
| 12.03.2026 | 21:57 | 7.9 | 78 | 4.3 | 1018.0 | 0.4 | SSO | 0 | 0.0 |
| 12.03.2026 | 22:02 | 7.9 | 78 | 4.3 | 1018.0 | 2.2 | S | 0 | 0.0 |
| 12.03.2026 | 22:07 | 7.9 | 79 | 4.5 | 1018.0 | 1.3 | S | 0 | 0.0 |
| 12.03.2026 | 22:12 | 7.8 | 79 | 4.4 | 1017.9 | 0.9 | S | 0 | 0.0 |
| 12.03.2026 | 22:17 | 7.8 | 79 | 4.4 | 1017.9 | 2.7 | S | 0 | 0.0 |
| 12.03.2026 | 22:22 | 7.9 | 78 | 4.3 | 1017.9 | 2.2 | S | 0 | 0.0 |
| 12.03.2026 | 22:27 | 8.0 | 78 | 4.4 | 1017.9 | 1.8 | S | 0 | 0.0 |
| 12.03.2026 | 22:32 | 8.1 | 78 | 4.5 | 1017.9 | 1.8 | SSW | 0 | 0.0 |
| 12.03.2026 | 22:37 | 8.3 | 77 | 4.5 | 1017.8 | 2.2 | S | 0 | 0.0 |
| 12.03.2026 | 22:42 | 8.3 | 77 | 4.5 | 1017.7 | 1.3 | S | 0 | 0.0 |
| 12.03.2026 | 22:48 | 8.4 | 77 | 4.6 | 1017.6 | 0.9 | SSW | 0 | 0.0 |
| 12.03.2026 | 22:53 | 8.4 | 76 | 4.4 | 1017.6 | 2.2 | S | 0 | 0.0 |
| 12.03.2026 | 22:58 | 8.4 | 76 | 4.4 | 1017.6 | 3.1 | S | 0 | 0.0 |
| 12.03.2026 | 23:03 | 8.4 | 76 | 4.4 | 1017.5 | 6.3 | SSW | 0 | 0.0 |
| 12.03.2026 | 23:08 | 8.3 | 76 | 4.3 | 1017.6 | 1.8 | SSO | 0 | 0.0 |
| 12.03.2026 | 23:13 | 8.3 | 76 | 4.3 | 1017.6 | 1.8 | SSW | 0 | 0.0 |
| 12.03.2026 | 23:18 | 8.3 | 76 | 4.3 | 1017.5 | 2.7 | SSW | 0 | 0.0 |
| 12.03.2026 | 23:23 | 8.3 | 76 | 4.3 | 1017.5 | 2.2 | SSO | 0 | 0.0 |
| 12.03.2026 | 23:28 | 8.3 | 76 | 4.3 | 1017.5 | 3.1 | SO | 0 | 0.0 |
| 12.03.2026 | 23:33 | 8.4 | 76 | 4.4 | 1017.5 | 0.9 | SSW | 0 | 0.0 |
| 12.03.2026 | 23:38 | 8.4 | 76 | 4.4 | 1017.3 | 2.2 | S | 0 | 0.0 |
| 12.03.2026 | 23:43 | 8.3 | 76 | 4.3 | 1017.2 | 1.3 | S | 0 | 0.0 |
| 12.03.2026 | 23:48 | 8.2 | 76 | 4.2 | 1017.2 | 3.1 | WSW | 0 | 0.0 |
| 12.03.2026 | 23:53 | 8.1 | 77 | 4.3 | 1017.1 | 1.8 | SSW | 0 | 0.0 |
| 12.03.2026 | 23:58 | 8.1 | 77 | 4.3 | 1017.0 | 2.7 | SW | 0 | 0.0 |